Aérodrome :
LOGIN :

S'inscrire | Disclaimer

   EN    FR    IT 

 










Légende :    VFR   VFR Marginal   IFR   IFR Intensif   IFR Très Intensif
Visi : 
Plafond : 
>= 8 km
>= 3000ft
5 à 8 km
1000 à 3000 ft
1500m à 5 km
500 à 1000 ft
800 à 1500m
200 à 500 ft
< 800m
< 200 ft
Symboles :   Orages  Brouillard  Fortes neiges  Fortes précipitations  Vent > 20 kt
SIGMETs :   Divers  Orages  Givrage  Turbulence  Onde Orograph.  Cendres Volcan.







- Altitude de l'aérodrome : 56 ft


LPOV - Ovar Air Base

DERNIER METAR :
  • 270400Z 34003KT 9999 FEW013 BKN025 16/15 Q1012

METARs EXPIRÉS :
  • 270300Z 35005KT 9999 FEW013 BKN020 17/15 Q1013
  • 270200Z 34006KT 9999 FEW013 BKN020 17/15 Q1013

TAF TAF LPOV
Valide du 27 à 00h jusqu'au 28 à 00h UTC


262309Z 2700/2724 35005KT 9999 SCT010 BKN020
BECMG 2701/2703 VRB02KT 5000 BR SCT003 BKN008
PROB40 2703/2709 2000 BR BKN003
BECMG 2710/2713 30008KT 9999 NSW SCT015
Pas de NOTAMs connus pour ce terrain.



MET'MAP, la Météo Aéronautique d'un coup d'oeil ! - Copyright ORBIFLY Décembre 2007 - Disclaimer

ORBIFLY MET'MAP TEAM :

Programmation & Développement : Alexandra Zaïnal
Conception & Développement : Baudouin d'Aumeries
Co-Programmation & Développement : Marc-Olivier Méhu
Soutien technique & logistique : Manuel Goepfert

Contact : metmap@orbifly.com




SOURCES & CREDITS :

   NOAA